createdAt,value
2022-08-30T00:00:05.174Z,100578.75
2022-08-30T00:02:34.124Z,100567.97
2022-08-30T00:05:02.090Z,100571.25
2022-08-30T00:07:29.616Z,100573.16
2022-08-30T00:09:57.203Z,100567.19
2022-08-30T00:12:25.580Z,100572.00
2022-08-30T00:14:53.040Z,100575.94
2022-08-30T00:17:20.615Z,100567.44
2022-08-30T00:19:48.337Z,100569.88
2022-08-30T00:22:15.695Z,100568.25
2022-08-30T00:24:43.656Z,100567.94
2022-08-30T00:27:11.031Z,100571.69
2022-08-30T00:29:38.440Z,100564.34
2022-08-30T00:32:06.954Z,100565.66
2022-08-30T00:34:34.604Z,100565.63
2022-08-30T00:37:02.309Z,100572.38
2022-08-30T00:39:29.730Z,100569.13
2022-08-30T00:41:57.021Z,100576.84
2022-08-30T00:44:24.512Z,100573.81
2022-08-30T00:46:51.812Z,100576.91
2022-08-30T00:49:19.221Z,100578.28
2022-08-30T00:51:46.685Z,100568.50
2022-08-30T00:54:14.533Z,100577.75
2022-08-30T00:56:41.959Z,100572.47
2022-08-30T00:59:10.465Z,100573.50
2022-08-30T01:01:38.237Z,100573.66
2022-08-30T01:04:09.011Z,100571.97
2022-08-30T01:06:40.078Z,100576.09
2022-08-30T01:09:07.736Z,100575.59
2022-08-30T01:11:37.947Z,100572.56
2022-08-30T01:14:05.739Z,100565.56
2022-08-30T01:16:35.362Z,100573.44
2022-08-30T01:19:02.778Z,100574.97
2022-08-30T01:21:44.615Z,100573.97
2022-08-30T01:24:12.290Z,100575.91
2022-08-30T01:26:40.204Z,100589.06
2022-08-30T01:29:10.936Z,100584.81
2022-08-30T01:31:38.686Z,100579.34
2022-08-30T01:34:07.795Z,100574.22
2022-08-30T01:36:44.911Z,100583.75
2022-08-30T01:39:17.962Z,100581.88
2022-08-30T01:41:45.614Z,100580.81
2022-08-30T01:44:13.899Z,100579.97
2022-08-30T01:46:45.801Z,100583.56
2022-08-30T01:49:17.579Z,100582.53
2022-08-30T01:51:50.822Z,100577.06
2022-08-30T01:54:28.094Z,100577.06
2022-08-30T01:57:04.991Z,100568.03
2022-08-30T01:59:34.499Z,100574.53
2022-08-30T02:02:02.218Z,100576.97
2022-08-30T02:04:29.736Z,100582.78
2022-08-30T02:06:57.297Z,100586.06
2022-08-30T02:09:24.913Z,100586.91
2022-08-30T02:11:53.262Z,100588.28
2022-08-30T02:14:21.131Z,100590.19
2022-08-30T02:16:49.745Z,100584.06
2022-08-30T02:19:18.397Z,100591.72
2022-08-30T02:21:45.756Z,100591.22
2022-08-30T02:24:13.061Z,100593.28
2022-08-30T02:26:40.401Z,100598.56
2022-08-30T02:29:07.753Z,100584.72
2022-08-30T02:31:35.900Z,100590.19
2022-08-30T02:34:04.447Z,100593.94
2022-08-30T02:36:32.044Z,100596.69
2022-08-30T02:38:59.824Z,100597.53
2022-08-30T02:41:27.101Z,100586.47
2022-08-30T02:43:58.603Z,100589.84
2022-08-30T02:46:33.315Z,100596.00
2022-08-30T02:49:13.206Z,100602.78
2022-08-30T02:51:49.968Z,100598.69
2022-08-30T02:54:20.224Z,100592.38
2022-08-30T02:56:49.100Z,100595.81
2022-08-30T02:59:17.366Z,100599.03
2022-08-30T03:01:44.940Z,100602.44
2022-08-30T03:04:12.324Z,100601.25
2022-08-30T03:06:40.108Z,100595.25
2022-08-30T03:09:07.888Z,100610.59
2022-08-30T03:11:37.758Z,100605.47
2022-08-30T03:14:05.445Z,100608.34
2022-08-30T03:16:32.960Z,100611.91
2022-08-30T03:19:00.402Z,100613.38
2022-08-30T03:21:27.755Z,100614.56
2022-08-30T03:23:55.137Z,100621.16
2022-08-30T03:26:22.388Z,100626.72
2022-08-30T03:28:49.837Z,100628.88
2022-08-30T03:31:17.290Z,100627.53
2022-08-30T03:33:44.727Z,100621.38
2022-08-30T03:36:12.718Z,100621.22
2022-08-30T03:38:41.138Z,100623.38
2022-08-30T03:41:09.183Z,100615.53
2022-08-30T03:43:37.488Z,100628.19
2022-08-30T03:46:05.860Z,100623.75
2022-08-30T03:48:33.332Z,100625.94
2022-08-30T03:51:00.641Z,100623.16
2022-08-30T03:53:28.249Z,100614.19
2022-08-30T03:55:55.657Z,100620.41
2022-08-30T03:58:25.448Z,100627.50
2022-08-30T04:00:52.914Z,100621.34
2022-08-30T04:03:25.885Z,100621.72
2022-08-30T04:05:54.828Z,100616.53
2022-08-30T04:08:23.246Z,100622.47
2022-08-30T04:10:51.197Z,100630.91
2022-08-30T04:13:19.088Z,100621.47
2022-08-30T04:15:46.466Z,100629.50
2022-08-30T04:18:14.041Z,100630.47
2022-08-30T04:20:43.621Z,100628.56
2022-08-30T04:23:12.613Z,100636.44
2022-08-30T04:25:41.481Z,100625.81
2022-08-30T04:28:09.716Z,100632.00
2022-08-30T04:30:44.609Z,100634.56
2022-08-30T04:33:13.172Z,100629.72
2022-08-30T04:35:47.680Z,100636.22
2022-08-30T04:38:17.549Z,100634.84
2022-08-30T04:40:50.684Z,100637.19
2022-08-30T04:43:18.414Z,100630.78
2022-08-30T04:45:46.439Z,100630.97
2022-08-30T04:48:14.100Z,100624.91
2022-08-30T04:50:43.468Z,100627.94
2022-08-30T04:53:11.059Z,100626.56
2022-08-30T04:55:40.293Z,100626.50
2022-08-30T04:58:07.910Z,100630.13
2022-08-30T05:00:37.795Z,100620.41
2022-08-30T05:03:16.243Z,100624.44
2022-08-30T05:05:52.418Z,100617.44
2022-08-30T05:08:24.623Z,100632.44
2022-08-30T05:10:52.932Z,100621.44
2022-08-30T05:13:25.941Z,100620.19
2022-08-30T05:16:04.759Z,100616.34
2022-08-30T05:18:32.671Z,100620.56
2022-08-30T05:21:03.931Z,100616.91
2022-08-30T05:23:31.782Z,100609.38
2022-08-30T05:26:05.522Z,100616.63
2022-08-30T05:28:32.862Z,100608.81
2022-08-30T05:31:00.586Z,100605.72
2022-08-30T05:33:28.541Z,100614.59
2022-08-30T05:35:55.989Z,100612.06
2022-08-30T05:38:23.525Z,100611.75
2022-08-30T05:40:53.773Z,100603.59
2022-08-30T05:43:26.773Z,100612.22
2022-08-30T05:46:05.533Z,100611.28
2022-08-30T05:48:34.272Z,100610.09
2022-08-30T05:51:11.720Z,100619.97
2022-08-30T05:53:40.188Z,100613.47
2022-08-30T05:56:10.448Z,100609.28
2022-08-30T05:58:43.086Z,100617.09
2022-08-30T06:01:41.045Z,100619.16
2022-08-30T06:04:10.802Z,100611.84
2022-08-30T06:06:41.097Z,100616.16
2022-08-30T06:09:10.249Z,100623.94
2022-08-30T06:11:38.673Z,100616.94
2022-08-30T06:14:09.581Z,100623.63
2022-08-30T06:16:40.488Z,100622.50
2022-08-30T06:19:12.215Z,100622.28
2022-08-30T06:21:43.723Z,100624.97
2022-08-30T06:24:13.097Z,100623.91
2022-08-30T06:26:43.542Z,100624.66
2022-08-30T06:29:14.260Z,100632.97
2022-08-30T06:31:44.949Z,100629.22
2022-08-30T06:34:14.926Z,100632.81
2022-08-30T06:36:42.770Z,100633.44
2022-08-30T06:39:10.856Z,100636.41
2022-08-30T06:41:41.125Z,100640.44
2022-08-30T06:44:09.186Z,100641.13
2022-08-30T06:46:38.357Z,100642.47
2022-08-30T06:49:07.050Z,100644.81
2022-08-30T06:51:38.005Z,100642.59
2022-08-30T06:54:10.918Z,100647.41
2022-08-30T06:56:57.769Z,100649.53
2022-08-30T06:59:27.223Z,100646.31
2022-08-30T07:01:55.873Z,100645.63
2022-08-30T07:04:23.563Z,100648.66
2022-08-30T07:06:50.932Z,100644.72
2022-08-30T07:09:19.537Z,100642.69
2022-08-30T07:11:51.266Z,100635.47
2022-08-30T07:14:19.055Z,100636.78
2022-08-30T07:16:50.909Z,100644.28
2022-08-30T07:19:20.905Z,100642.09
2022-08-30T07:21:50.877Z,100641.66
2022-08-30T07:24:20.320Z,100631.53
2022-08-30T07:26:53.721Z,100633.97
2022-08-30T07:29:21.526Z,100638.28
2022-08-30T07:31:49.783Z,100640.00
2022-08-30T07:36:51.352Z,100637.19
2022-08-30T07:39:20.945Z,100635.59
2022-08-30T07:41:48.921Z,100630.03
2022-08-30T07:44:17.079Z,100633.41
2022-08-30T07:46:44.888Z,100635.19
2022-08-30T07:49:39.617Z,100633.50
2022-08-30T07:52:16.273Z,100633.97
2022-08-30T07:54:53.192Z,100622.69
2022-08-30T07:57:21.035Z,100625.66
2022-08-30T07:59:48.428Z,100630.50
2022-08-30T08:02:15.908Z,100627.88
2022-08-30T08:04:44.019Z,100635.25
2022-08-30T08:07:12.063Z,100630.09
2022-08-30T08:09:39.590Z,100637.66
2022-08-30T08:12:12.823Z,100636.22
2022-08-30T08:14:41.546Z,100638.31
2022-08-30T08:17:10.705Z,100632.81
2022-08-30T08:19:38.582Z,100635.41
2022-08-30T08:22:21.941Z,100626.16
2022-08-30T08:24:50.183Z,100633.28
2022-08-30T08:27:17.673Z,100625.03
2022-08-30T08:29:45.033Z,100630.44
2022-08-30T08:32:12.464Z,100627.56
2022-08-30T08:34:41.534Z,100622.59
2022-08-30T08:37:09.184Z,100622.00
2022-08-30T08:39:37.174Z,100614.19
2022-08-30T08:42:25.493Z,100620.50
2022-08-30T08:45:36.285Z,100616.41
2022-08-30T08:48:10.550Z,100623.66
2022-08-30T08:51:02.786Z,100609.16
2022-08-30T08:53:52.476Z,100608.38
2022-08-30T08:56:22.067Z,100598.03
2022-08-30T08:58:55.114Z,100599.97
2022-08-30T09:01:25.843Z,100591.06
2022-08-30T09:03:54.069Z,100597.97
2022-08-30T09:06:45.065Z,100600.19
2022-08-30T09:09:22.368Z,100590.31
2022-08-30T09:11:50.281Z,100599.03
2022-08-30T09:14:25.418Z,100593.25
2022-08-30T09:17:03.299Z,100580.47
2022-08-30T09:19:52.955Z,100579.16
2022-08-30T09:22:33.923Z,100579.75
2022-08-30T09:25:28.091Z,100583.34
2022-08-30T09:28:09.769Z,100583.91
2022-08-30T09:30:39.821Z,100584.75
2022-08-30T09:33:19.523Z,100580.28
2022-08-30T09:35:49.369Z,100589.44
2022-08-30T09:38:20.633Z,100583.06
2022-08-30T09:40:49.922Z,100583.41
2022-08-30T09:43:17.382Z,100587.09
2022-08-30T09:45:50.547Z,100585.66
2022-08-30T09:48:27.902Z,100581.50
2022-08-30T09:51:22.834Z,100592.50
2022-08-30T09:54:17.480Z,100581.59
2022-08-30T09:57:13.311Z,100587.72
2022-08-30T10:00:21.967Z,100584.84
2022-08-30T10:03:30.066Z,100574.16
2022-08-30T10:06:28.915Z,100584.25
2022-08-30T10:09:02.245Z,100569.78
2022-08-30T10:11:36.588Z,100576.56
2022-08-30T10:14:20.783Z,100574.09
2022-08-30T10:17:20.054Z,100582.69
2022-08-30T10:20:19.022Z,100575.59
2022-08-30T10:22:46.774Z,100575.03
2022-08-30T10:25:18.789Z,100576.97
2022-08-30T10:27:59.238Z,100571.16
2022-08-30T10:30:28.214Z,100556.91
2022-08-30T10:33:05.016Z,100563.50
2022-08-30T10:35:38.974Z,100562.34
2022-08-30T10:38:28.295Z,100563.78
2022-08-30T10:41:14.121Z,100563.38
2022-08-30T10:44:16.635Z,100556.91
2022-08-30T10:46:53.486Z,100557.19
2022-08-30T10:49:31.621Z,100546.84
2022-08-30T10:52:23.344Z,100556.38
2022-08-30T10:55:15.010Z,100548.00
2022-08-30T10:57:43.707Z,100549.16
2022-08-30T11:00:17.476Z,100544.44
2022-08-30T11:03:08.402Z,100551.75
2022-08-30T11:05:42.834Z,100541.03
2022-08-30T11:08:53.073Z,100535.75
2022-08-30T11:11:41.733Z,100537.19
2022-08-30T11:14:11.680Z,100532.94
2022-08-30T11:19:39.149Z,100524.91
2022-08-30T11:22:34.389Z,100535.22
2022-08-30T11:25:15.804Z,100529.66
2022-08-30T11:27:57.068Z,100525.19
2022-08-30T11:30:26.598Z,100521.81
2022-08-30T11:33:14.621Z,100531.31
2022-08-30T11:35:52.588Z,100526.00
2022-08-30T11:38:26.110Z,100522.97
2022-08-30T11:40:56.705Z,100522.94
2022-08-30T11:43:37.234Z,100513.38
2022-08-30T11:46:15.140Z,100509.22
2022-08-30T11:49:05.490Z,100514.25
2022-08-30T11:52:08.397Z,100513.16
2022-08-30T11:55:02.051Z,100504.50
2022-08-30T11:57:33.478Z,100501.97
2022-08-30T12:00:11.559Z,100494.44
2022-08-30T12:02:55.702Z,100500.59
2022-08-30T12:05:41.056Z,100498.09
2022-08-30T12:08:14.026Z,100495.28
2022-08-30T12:10:45.781Z,100494.13
2022-08-30T12:13:39.958Z,100492.66
2022-08-30T12:16:23.422Z,100492.41
2022-08-30T12:19:01.028Z,100494.38
2022-08-30T12:21:31.230Z,100492.09
2022-08-30T12:24:17.499Z,100483.41
2022-08-30T12:26:47.672Z,100479.75
2022-08-30T12:29:27.330Z,100478.06
2022-08-30T12:32:00.255Z,100476.97
2022-08-30T12:34:50.352Z,100465.50
2022-08-30T12:37:31.122Z,100471.97
2022-08-30T12:40:15.722Z,100470.59
2022-08-30T12:43:05.844Z,100466.44
2022-08-30T12:45:45.627Z,100461.97
2022-08-30T12:48:20.860Z,100467.00
2022-08-30T12:50:51.976Z,100464.53
2022-08-30T12:53:38.208Z,100462.59
2022-08-30T12:56:10.927Z,100452.53
2022-08-30T12:58:47.520Z,100453.34
2022-08-30T13:01:28.503Z,100442.16
2022-08-30T13:04:11.604Z,100442.69
2022-08-30T13:06:53.747Z,100437.41
2022-08-30T13:09:34.247Z,100431.25
2022-08-30T13:12:10.910Z,100429.31
2022-08-30T13:14:45.292Z,100413.06
2022-08-30T13:17:19.144Z,100424.25
2022-08-30T13:19:59.204Z,100424.00
2022-08-30T13:22:27.006Z,100422.03
2022-08-30T13:24:54.729Z,100422.31
2022-08-30T13:27:22.358Z,100419.00
2022-08-30T13:29:49.970Z,100412.00
2022-08-30T13:32:17.764Z,100419.84
2022-08-30T13:35:07.824Z,100413.13
2022-08-30T13:37:51.986Z,100406.13
2022-08-30T13:40:23.042Z,100406.13
2022-08-30T13:42:51.103Z,100409.16
2022-08-30T13:48:13.086Z,100391.00
2022-08-30T13:50:41.299Z,100393.81
2022-08-30T13:53:10.067Z,100384.84
2022-08-30T13:55:39.197Z,100391.03
2022-08-30T13:58:08.669Z,100374.00
2022-08-30T14:00:38.256Z,100387.97
2022-08-30T14:03:06.216Z,100387.16
2022-08-30T14:06:09.947Z,100382.94
2022-08-30T14:08:49.803Z,100378.75
2022-08-30T14:11:20.818Z,100375.13
2022-08-30T14:16:41.920Z,100370.94
2022-08-30T14:19:12.299Z,100369.53
2022-08-30T14:21:39.891Z,100370.09
2022-08-30T14:24:07.405Z,100376.25
2022-08-30T14:26:45.757Z,100370.94
2022-08-30T14:29:16.495Z,100373.19
2022-08-30T14:31:45.145Z,100362.84
2022-08-30T14:34:15.636Z,100373.16
2022-08-30T14:36:47.206Z,100369.75
2022-08-30T14:39:18.791Z,100367.75
2022-08-30T14:41:50.958Z,100367.66
2022-08-30T14:44:19.808Z,100365.38
2022-08-30T14:46:51.008Z,100364.50
2022-08-30T14:49:19.465Z,100367.56
2022-08-30T14:51:48.668Z,100369.81
2022-08-30T14:54:21.489Z,100360.59
2022-08-30T14:56:49.397Z,100369.81
2022-08-30T14:59:18.685Z,100367.84
2022-08-30T15:01:51.071Z,100356.94
2022-08-30T15:04:19.483Z,100362.72
2022-08-30T15:06:51.389Z,100363.19
2022-08-30T15:09:23.315Z,100361.19
2022-08-30T15:11:52.840Z,100346.59
2022-08-30T15:14:23.805Z,100344.31
2022-08-30T15:16:53.962Z,100332.72
2022-08-30T15:19:23.421Z,100332.06
2022-08-30T15:21:51.663Z,100341.53
2022-08-30T15:24:24.808Z,100341.22
2022-08-30T15:26:57.802Z,100340.97
2022-08-30T15:29:31.569Z,100343.19
2022-08-30T15:32:00.418Z,100343.81
2022-08-30T15:34:29.145Z,100354.94
2022-08-30T15:36:57.677Z,100361.50
2022-08-30T15:39:25.127Z,100359.50
2022-08-30T15:42:00.608Z,100355.41
2022-08-30T15:44:31.912Z,100355.91
2022-08-30T15:46:59.951Z,100357.47
2022-08-30T15:49:27.766Z,100363.44
2022-08-30T15:51:55.209Z,100353.31
2022-08-30T15:54:24.102Z,100358.03
2022-08-30T15:56:59.090Z,100361.66
2022-08-30T15:59:28.497Z,100359.72
2022-08-30T16:01:56.277Z,100360.53
2022-08-30T16:04:25.718Z,100367.34
2022-08-30T16:06:53.273Z,100373.53
2022-08-30T16:09:22.254Z,100373.78
2022-08-30T16:11:49.767Z,100374.78
2022-08-30T16:14:18.069Z,100381.28
2022-08-30T16:16:46.558Z,100391.22
2022-08-30T16:19:14.133Z,100383.44
2022-08-30T16:21:42.841Z,100387.50
2022-08-30T16:24:13.632Z,100387.28
2022-08-30T16:26:43.050Z,100389.00
2022-08-30T16:29:12.654Z,100387.75
2022-08-30T16:31:44.380Z,100394.84
2022-08-30T16:34:17.327Z,100383.63
2022-08-30T16:36:45.582Z,100379.09
2022-08-30T16:39:13.598Z,100388.88
2022-08-30T16:41:42.691Z,100386.09
2022-08-30T16:44:12.018Z,100388.00
2022-08-30T16:46:41.302Z,100389.63
2022-08-30T16:49:10.496Z,100397.19
2022-08-30T16:51:38.586Z,100406.50
2022-08-30T16:54:08.058Z,100405.81
2022-08-30T16:56:37.523Z,100400.41
2022-08-30T16:59:10.840Z,100421.34
2022-08-30T17:01:39.614Z,100420.69
2022-08-30T17:04:08.285Z,100415.34
2022-08-30T17:06:36.702Z,100422.25
2022-08-30T17:09:06.048Z,100422.84
2022-08-30T17:11:34.797Z,100421.72
2022-08-30T17:14:02.663Z,100428.69
2022-08-30T17:16:30.390Z,100444.00
2022-08-30T17:19:05.038Z,100458.31
2022-08-30T17:21:33.351Z,100449.88
2022-08-30T17:24:02.322Z,100451.81
2022-08-30T17:26:32.173Z,100448.31
2022-08-30T17:28:59.677Z,100451.91
2022-08-30T17:31:30.820Z,100445.28
2022-08-30T17:34:04.244Z,100446.13
2022-08-30T17:36:35.234Z,100440.00
2022-08-30T17:39:11.395Z,100437.13
2022-08-30T17:41:45.127Z,100433.53
2022-08-30T17:44:19.728Z,100429.28
2022-08-30T17:46:48.007Z,100419.91
2022-08-30T17:49:15.495Z,100424.84
2022-08-30T17:51:44.725Z,100412.31
2022-08-30T17:54:13.077Z,100410.00
2022-08-30T17:56:41.155Z,100414.25
2022-08-30T17:59:10.984Z,100411.72
2022-08-30T18:01:39.168Z,100413.03
2022-08-30T18:04:08.104Z,100417.34
2022-08-30T18:06:36.150Z,100415.28
2022-08-30T18:09:07.421Z,100413.22
2022-08-30T18:11:37.753Z,100415.38
2022-08-30T18:14:06.065Z,100415.88
2022-08-30T18:16:35.797Z,100413.81
2022-08-30T18:19:06.054Z,100420.91
2022-08-30T18:21:37.856Z,100419.06
2022-08-30T18:24:06.043Z,100420.88
2022-08-30T18:26:34.174Z,100425.66
2022-08-30T18:29:02.038Z,100423.84
2022-08-30T18:31:29.956Z,100416.47
2022-08-30T18:34:00.289Z,100429.91
2022-08-30T18:36:28.538Z,100422.97
2022-08-30T18:38:55.982Z,100420.63
2022-08-30T18:41:25.924Z,100419.41
2022-08-30T18:44:10.982Z,100410.72
2022-08-30T18:46:56.477Z,100407.81
2022-08-30T18:49:28.180Z,100411.28
2022-08-30T18:51:55.618Z,100419.19
2022-08-30T18:54:23.524Z,100423.50
2022-08-30T18:56:50.926Z,100424.84
2022-08-30T18:59:19.698Z,100412.31
2022-08-30T19:01:47.244Z,100429.13
2022-08-30T19:07:07.265Z,100430.16
2022-08-30T19:09:35.394Z,100423.16
2022-08-30T19:12:09.670Z,100430.22
2022-08-30T19:14:39.789Z,100429.44
2022-08-30T19:17:14.705Z,100433.94
2022-08-30T19:19:47.381Z,100423.75
2022-08-30T19:22:17.788Z,100428.41
2022-08-30T19:24:47.420Z,100423.34
2022-08-30T19:27:14.729Z,100425.28
2022-08-30T19:29:53.786Z,100418.53
2022-08-30T19:32:22.485Z,100428.34
2022-08-30T19:34:50.166Z,100422.41
2022-08-30T19:37:18.701Z,100433.06
2022-08-30T19:42:36.348Z,100427.94
2022-08-30T19:45:08.080Z,100431.38
2022-08-30T19:47:36.376Z,100422.47
2022-08-30T19:50:05.483Z,100424.84
2022-08-30T19:52:37.742Z,100420.63
2022-08-30T19:55:10.756Z,100428.75
2022-08-30T19:57:38.196Z,100425.19
2022-08-30T20:00:11.167Z,100423.53
2022-08-30T20:02:40.491Z,100420.38
2022-08-30T20:05:10.281Z,100421.69
2022-08-30T20:07:41.131Z,100420.84
2022-08-30T20:10:12.614Z,100418.09
2022-08-30T20:12:45.476Z,100413.84
2022-08-30T20:15:15.310Z,100424.47
2022-08-30T20:18:05.397Z,100418.81
2022-08-30T20:20:37.108Z,100412.94
2022-08-30T20:23:06.027Z,100418.53
2022-08-30T20:24:30.322Z,100423.94
2022-08-30T20:25:34.615Z,100418.59
2022-08-30T20:28:03.117Z,100421.63
2022-08-30T20:30:30.883Z,100429.69
2022-08-30T20:33:00.725Z,100424.84
2022-08-30T20:35:30.204Z,100421.28
2022-08-30T20:38:00.633Z,100421.94
2022-08-30T20:40:28.058Z,100427.88
2022-08-30T20:42:56.931Z,100432.78
2022-08-30T20:45:30.966Z,100432.56
2022-08-30T20:47:58.644Z,100433.03
2022-08-30T20:50:26.961Z,100430.28
2022-08-30T20:52:54.414Z,100431.38
2022-08-30T20:55:21.790Z,100434.19
2022-08-30T20:57:49.197Z,100431.19
2022-08-30T21:00:16.885Z,100438.00
2022-08-30T21:02:48.516Z,100429.56
2022-08-30T21:05:16.799Z,100432.72
2022-08-30T21:07:45.944Z,100429.53
2022-08-30T21:10:13.507Z,100432.53
2022-08-30T21:12:42.992Z,100429.53
2022-08-30T21:15:34.067Z,100437.19
2022-08-30T21:18:00.271Z,100434.06
2022-08-30T21:20:28.427Z,100438.72
2022-08-30T21:22:56.187Z,100436.41
2022-08-30T21:25:23.814Z,100436.19
2022-08-30T21:27:53.130Z,100438.72
2022-08-30T21:30:20.543Z,100432.81
2022-08-30T21:32:47.945Z,100441.28
2022-08-30T21:35:34.194Z,100438.75
2022-08-30T21:38:01.590Z,100445.72
2022-08-30T21:40:29.327Z,100450.38
2022-08-30T21:42:57.114Z,100455.03
2022-08-30T21:45:24.573Z,100457.59
2022-08-30T21:47:51.919Z,100466.25
2022-08-30T21:50:19.391Z,100472.38
2022-08-30T21:52:48.846Z,100486.28
2022-08-30T21:55:16.243Z,100483.81
2022-08-30T21:57:43.486Z,100485.69
2022-08-30T22:00:11.572Z,100494.38
2022-08-30T22:02:39.863Z,100493.53
2022-08-30T22:05:07.548Z,100496.91
2022-08-30T22:07:37.425Z,100501.56
2022-08-30T22:10:07.109Z,100502.81
2022-08-30T22:12:35.365Z,100514.06
2022-08-30T22:15:06.207Z,100508.75
2022-08-30T22:17:36.391Z,100504.91
2022-08-30T22:20:05.707Z,100502.81
2022-08-30T22:22:34.171Z,100493.25
2022-08-30T22:25:01.710Z,100483.91
2022-08-30T22:27:31.386Z,100491.31
2022-08-30T22:29:58.976Z,100486.41
2022-08-30T22:32:26.463Z,100485.56
2022-08-30T22:34:53.739Z,100488.53
2022-08-30T22:37:21.163Z,100482.41
2022-08-30T22:39:50.868Z,100492.34
2022-08-30T22:42:18.353Z,100486.00
2022-08-30T22:44:46.989Z,100477.13
2022-08-30T22:47:14.321Z,100484.97
2022-08-30T22:49:41.593Z,100490.50
2022-08-30T22:52:09.272Z,100476.75
2022-08-30T22:54:38.904Z,100484.78
2022-08-30T22:57:07.092Z,100474.84
2022-08-30T22:59:35.856Z,100479.75
2022-08-30T23:02:05.964Z,100477.00
2022-08-30T23:04:36.851Z,100471.25
2022-08-30T23:07:04.425Z,100472.09
2022-08-30T23:09:31.921Z,100476.34
2022-08-30T23:11:59.425Z,100478.28
2022-08-30T23:14:27.133Z,100477.88
2022-08-30T23:16:54.822Z,100480.44
2022-08-30T23:19:23.749Z,100474.72
2022-08-30T23:21:51.241Z,100472.59
2022-08-30T23:24:37.605Z,100471.53
2022-08-30T23:27:23.629Z,100480.66
2022-08-30T23:30:09.495Z,100471.78
2022-08-30T23:32:55.550Z,100475.78
2022-08-30T23:35:42.158Z,100481.28
2022-08-30T23:38:27.916Z,100459.44
2022-08-30T23:41:13.867Z,100457.97
2022-08-30T23:44:01.021Z,100468.75
2022-08-30T23:46:46.957Z,100458.16
2022-08-30T23:49:32.744Z,100457.97
2022-08-30T23:52:18.465Z,100440.63
2022-08-30T23:55:04.791Z,100435.53
2022-08-30T23:57:51.208Z,100433.88
